createdAt,value
2022-09-18T00:01:28.107Z,101359.88
2022-09-18T00:04:02.038Z,101374.88
2022-09-18T00:06:39.193Z,101372.47
2022-09-18T00:09:14.401Z,101360.28
2022-09-18T00:11:47.271Z,101367.75
2022-09-18T00:14:22.096Z,101369.31
2022-09-18T00:16:54.394Z,101369.31
2022-09-18T00:19:26.989Z,101373.66
2022-09-18T00:21:59.325Z,101365.75
2022-09-18T00:24:31.629Z,101364.56
2022-09-18T00:27:03.976Z,101356.72
2022-09-18T00:29:36.276Z,101360.66
2022-09-18T00:32:08.535Z,101359.09
2022-09-18T00:34:41.477Z,101356.69
2022-09-18T00:37:13.759Z,101359.09
2022-09-18T00:39:46.025Z,101354.34
2022-09-18T00:42:19.217Z,101359.47
2022-09-18T00:44:51.509Z,101358.28
2022-09-18T00:47:26.129Z,101352.00
2022-09-18T00:50:01.444Z,101364.59
2022-09-18T00:52:54.586Z,101356.69
2022-09-18T00:55:31.890Z,101361.78
2022-09-18T00:58:04.597Z,101370.06
2022-09-18T01:00:37.071Z,101370.81
2022-09-18T01:03:09.453Z,101361.38
2022-09-18T01:05:52.277Z,101361.38
2022-09-18T01:08:30.904Z,101365.72
2022-09-18T01:11:09.874Z,101357.47
2022-09-18T01:13:54.295Z,101369.69
2022-09-18T01:16:36.196Z,101370.44
2022-09-18T01:19:09.892Z,101375.97
2022-09-18T01:22:05.120Z,101366.88
2022-09-18T01:24:45.718Z,101375.53
2022-09-18T01:27:31.516Z,101386.22
2022-09-18T01:30:06.572Z,101372.41
2022-09-18T01:32:45.887Z,101373.22
2022-09-18T01:35:40.026Z,101370.06
2022-09-18T01:38:24.013Z,101375.53
2022-09-18T01:41:00.108Z,101358.22
2022-09-18T01:43:33.883Z,101357.84
2022-09-18T01:46:08.848Z,101359.03
2022-09-18T01:48:46.281Z,101354.72
2022-09-18T01:51:22.193Z,101357.47
2022-09-18T01:53:56.994Z,101344.88
2022-09-18T01:56:42.086Z,101348.44
2022-09-18T01:59:18.554Z,101349.31
2022-09-18T02:01:52.292Z,101350.91
2022-09-18T02:04:26.773Z,101341.84
2022-09-18T02:07:14.748Z,101340.72
2022-09-18T02:09:47.526Z,101338.81
2022-09-18T02:12:21.097Z,101337.13
2022-09-18T02:14:57.413Z,101333.22
2022-09-18T02:17:33.968Z,101326.84
2022-09-18T02:20:10.926Z,101347.28
2022-09-18T02:22:45.729Z,101341.31
2022-09-18T02:25:21.082Z,101335.31
2022-09-18T02:27:54.644Z,101338.38
2022-09-18T02:30:28.096Z,101336.81
2022-09-18T02:33:00.417Z,101329.69
2022-09-18T02:35:38.597Z,101324.16
2022-09-18T02:38:22.450Z,101317.88
2022-09-18T02:40:59.670Z,101322.19
2022-09-18T02:43:46.625Z,101308.38
2022-09-18T02:46:23.627Z,101317.44
2022-09-18T02:49:11.491Z,101311.56
2022-09-18T02:51:43.799Z,101315.13
2022-09-18T02:54:22.124Z,101317.09
2022-09-18T02:57:01.133Z,101316.28
2022-09-18T02:59:36.752Z,101311.97
2022-09-18T03:02:09.684Z,101310.78
2022-09-18T03:04:42.223Z,101302.88
2022-09-18T03:07:15.930Z,101305.25
2022-09-18T03:09:50.837Z,101298.94
2022-09-18T03:12:23.098Z,101304.81
2022-09-18T03:14:55.363Z,101299.69
2022-09-18T03:17:27.657Z,101309.13
2022-09-18T03:20:00.039Z,101308.34
2022-09-18T03:22:32.320Z,101299.66
2022-09-18T03:25:04.879Z,101303.59
2022-09-18T03:27:37.130Z,101303.59
2022-09-18T03:30:09.806Z,101299.66
2022-09-18T03:32:42.090Z,101298.09
2022-09-18T03:35:14.466Z,101300.81
2022-09-18T03:37:46.938Z,101300.38
2022-09-18T03:40:19.413Z,101291.81
2022-09-18T03:42:51.830Z,101296.84
2022-09-18T03:45:24.142Z,101301.22
2022-09-18T03:47:56.744Z,101298.09
2022-09-18T03:50:29.246Z,101296.53
2022-09-18T03:53:01.533Z,101293.34
2022-09-18T03:55:34.746Z,101287.44
2022-09-18T03:58:07.117Z,101291.81
2022-09-18T04:00:39.407Z,101293.44
2022-09-18T04:03:11.777Z,101284.81
2022-09-18T04:05:44.210Z,101284.03
2022-09-18T04:08:17.078Z,101279.34
2022-09-18T04:10:49.528Z,101276.63
2022-09-18T04:13:21.892Z,101274.72
2022-09-18T04:15:54.441Z,101280.22
2022-09-18T04:18:26.776Z,101280.63
2022-09-18T04:20:59.091Z,101274.72
2022-09-18T04:23:31.338Z,101283.47
2022-09-18T04:26:08.963Z,101281.13
2022-09-18T04:28:41.227Z,101281.91
2022-09-18T04:31:13.813Z,101285.44
2022-09-18T04:33:46.430Z,101289.75
2022-09-18T04:36:18.697Z,101281.44
2022-09-18T04:38:50.990Z,101282.63
2022-09-18T04:41:23.225Z,101291.66
2022-09-18T04:43:55.689Z,101283.38
2022-09-18T04:46:28.053Z,101278.25
2022-09-18T04:49:00.535Z,101284.91
2022-09-18T04:51:32.859Z,101280.59
2022-09-18T04:54:05.659Z,101279.38
2022-09-18T04:56:37.970Z,101285.69
2022-09-18T04:59:10.466Z,101286.50
2022-09-18T05:01:42.748Z,101280.16
2022-09-18T05:04:15.177Z,101280.50
2022-09-18T05:06:47.973Z,101283.66
2022-09-18T05:09:20.332Z,101280.13
2022-09-18T05:11:54.466Z,101286.50
2022-09-18T05:14:27.595Z,101284.13
2022-09-18T05:16:59.894Z,101268.31
2022-09-18T05:19:32.188Z,101267.16
2022-09-18T05:22:04.581Z,101271.09
2022-09-18T05:24:36.833Z,101273.84
2022-09-18T05:27:09.180Z,101270.75
2022-09-18T05:29:41.729Z,101269.13
2022-09-18T05:32:13.994Z,101276.63
2022-09-18T05:34:46.778Z,101293.56
2022-09-18T05:37:19.183Z,101300.66
2022-09-18T05:39:51.504Z,101295.13
2022-09-18T05:42:24.068Z,101283.25
2022-09-18T05:45:01.139Z,101290.34
2022-09-18T05:47:36.130Z,101298.22
2022-09-18T05:50:09.443Z,101310.03
2022-09-18T05:52:41.706Z,101315.50
2022-09-18T05:55:14.049Z,101318.28
2022-09-18T05:57:46.329Z,101296.56
2022-09-18T06:00:18.735Z,101287.88
2022-09-18T06:02:58.713Z,101296.94
2022-09-18T06:05:32.489Z,101288.63
2022-09-18T06:08:06.487Z,101283.88
2022-09-18T06:10:39.943Z,101286.94
2022-09-18T06:13:16.258Z,101287.78
2022-09-18T06:15:49.963Z,101282.28
2022-09-18T06:18:22.335Z,101292.09
2022-09-18T06:20:58.819Z,101281.88
2022-09-18T06:23:31.569Z,101284.50
2022-09-18T06:26:05.684Z,101289.13
2022-09-18T06:28:38.017Z,101275.63
2022-09-18T06:31:10.747Z,101280.13
2022-09-18T06:33:43.191Z,101279.09
2022-09-18T06:36:16.351Z,101276.66
2022-09-18T06:38:51.553Z,101284.78
2022-09-18T06:41:24.300Z,101285.50
2022-09-18T06:43:56.640Z,101285.84
2022-09-18T06:46:28.951Z,101276.38
2022-09-18T06:49:01.278Z,101275.41
2022-09-18T06:51:33.618Z,101283.72
2022-09-18T06:54:06.342Z,101276.31
2022-09-18T06:56:38.771Z,101269.16
2022-09-18T06:59:11.103Z,101277.44
2022-09-18T07:01:43.470Z,101280.25
2022-09-18T07:04:16.013Z,101280.25
2022-09-18T07:06:48.268Z,101284.16
2022-09-18T07:09:20.709Z,101283.41
2022-09-18T07:11:52.981Z,101278.53
2022-09-18T07:14:28.069Z,101294.22
2022-09-18T07:17:14.107Z,101290.19
2022-09-18T07:19:49.732Z,101278.97
2022-09-18T07:22:21.999Z,101276.47
2022-09-18T07:24:54.253Z,101278.06
2022-09-18T07:27:28.353Z,101276.63
2022-09-18T07:30:00.736Z,101274.56
2022-09-18T07:32:35.306Z,101270.88
2022-09-18T07:35:08.225Z,101275.88
2022-09-18T07:37:40.551Z,101263.16
2022-09-18T07:40:13.006Z,101265.47
2022-09-18T07:42:45.520Z,101263.72
2022-09-18T07:45:17.855Z,101263.88
2022-09-18T07:47:50.109Z,101271.44
2022-09-18T07:50:23.005Z,101285.28
2022-09-18T07:52:56.753Z,101280.94
2022-09-18T07:55:29.235Z,101278.16
2022-09-18T07:58:02.619Z,101276.84
2022-09-18T08:00:36.008Z,101269.41
2022-09-18T08:03:09.816Z,101274.00
2022-09-18T08:05:42.276Z,101268.59
2022-09-18T08:08:15.674Z,101258.69
2022-09-18T08:10:47.930Z,101265.31
2022-09-18T08:13:20.254Z,101266.88
2022-09-18T08:15:52.641Z,101267.03
2022-09-18T08:18:25.002Z,101259.56
2022-09-18T08:20:57.700Z,101263.97
2022-09-18T08:23:30.032Z,101269.63
2022-09-18T08:26:02.801Z,101264.06
2022-09-18T08:28:35.369Z,101268.75
2022-09-18T08:31:07.698Z,101279.84
2022-09-18T08:33:40.081Z,101271.63
2022-09-18T08:36:12.466Z,101263.69
2022-09-18T08:38:44.812Z,101275.16
2022-09-18T08:41:35.845Z,101270.47
2022-09-18T08:44:11.098Z,101271.16
2022-09-18T08:46:49.508Z,101272.03
2022-09-18T08:49:40.960Z,101274.09
2022-09-18T08:52:17.677Z,101276.78
2022-09-18T08:55:04.477Z,101279.56
2022-09-18T08:57:48.328Z,101281.09
2022-09-18T09:00:21.954Z,101278.53
2022-09-18T09:03:03.520Z,101267.97
2022-09-18T09:05:43.128Z,101275.84
2022-09-18T09:08:48.085Z,101271.03
2022-09-18T09:11:20.715Z,101272.47
2022-09-18T09:14:06.878Z,101278.13
2022-09-18T09:16:45.069Z,101278.72
2022-09-18T09:19:17.445Z,101271.34
2022-09-18T09:21:54.917Z,101268.28
2022-09-18T09:24:35.637Z,101268.44
2022-09-18T09:27:19.066Z,101275.44
2022-09-18T09:29:54.903Z,101262.66
2022-09-18T09:32:33.123Z,101268.47
2022-09-18T09:35:17.875Z,101271.88
2022-09-18T09:37:51.070Z,101272.94
2022-09-18T09:40:32.475Z,101272.28
2022-09-18T09:43:25.019Z,101270.00
2022-09-18T09:46:00.115Z,101269.09
2022-09-18T09:48:43.435Z,101270.38
2022-09-18T09:51:34.364Z,101274.50
2022-09-18T09:54:09.737Z,101273.91
2022-09-18T09:56:51.179Z,101270.06
2022-09-18T09:59:32.663Z,101268.47
2022-09-18T10:02:11.276Z,101262.09
2022-09-18T10:04:52.454Z,101265.44
2022-09-18T10:07:43.571Z,101267.00
2022-09-18T10:10:39.198Z,101254.59
2022-09-18T10:13:17.213Z,101244.91
2022-09-18T10:15:51.431Z,101247.53
2022-09-18T10:18:25.960Z,101252.38
2022-09-18T10:21:09.070Z,101252.13
2022-09-18T10:23:42.635Z,101252.63
2022-09-18T10:26:21.626Z,101255.94
2022-09-18T10:28:53.952Z,101257.94
2022-09-18T10:31:45.902Z,101255.31
2022-09-18T10:34:36.683Z,101253.81
2022-09-18T10:37:30.614Z,101258.50
2022-09-18T10:40:04.406Z,101265.41
2022-09-18T10:42:37.289Z,101260.50
2022-09-18T10:45:23.574Z,101260.50
2022-09-18T10:48:06.913Z,101256.28
2022-09-18T10:50:39.963Z,101250.69
2022-09-18T10:53:20.822Z,101253.81
2022-09-18T10:55:55.961Z,101239.16
2022-09-18T10:58:30.366Z,101235.38
2022-09-18T11:01:04.557Z,101228.59
2022-09-18T11:03:41.619Z,101225.16
2022-09-18T11:06:19.580Z,101230.38
2022-09-18T11:08:53.194Z,101219.34
2022-09-18T11:11:36.049Z,101222.72
2022-09-18T11:14:16.786Z,101222.28
2022-09-18T11:16:51.822Z,101232.16
2022-09-18T11:19:34.963Z,101240.25
2022-09-18T11:22:27.250Z,101252.59
2022-09-18T11:28:27.749Z,101249.81
2022-09-18T11:31:01.973Z,101270.94
2022-09-18T11:33:37.462Z,101260.22
2022-09-18T11:36:11.408Z,101251.84
2022-09-18T11:38:45.882Z,101245.09
2022-09-18T11:41:35.740Z,101240.84
2022-09-18T11:44:15.445Z,101250.78
2022-09-18T11:46:56.908Z,101247.91
2022-09-18T11:49:31.325Z,101258.75
2022-09-18T11:52:16.474Z,101255.78
2022-09-18T11:54:55.572Z,101259.03
2022-09-18T11:57:34.088Z,101263.28
2022-09-18T12:00:12.847Z,101271.44
2022-09-18T12:02:58.554Z,101262.56
2022-09-18T12:05:30.849Z,101270.13
2022-09-18T12:08:17.248Z,101263.25
2022-09-18T12:11:08.375Z,101267.09
2022-09-18T12:13:45.552Z,101267.72
2022-09-18T12:16:25.764Z,101270.00
2022-09-18T12:19:02.141Z,101273.50
2022-09-18T12:21:38.367Z,101267.72
2022-09-18T12:24:15.747Z,101274.06
2022-09-18T12:27:08.245Z,101267.81
2022-09-18T12:30:00.876Z,101277.25
2022-09-18T12:32:52.026Z,101278.66
2022-09-18T12:35:45.628Z,101267.94
2022-09-18T12:38:32.971Z,101272.75
2022-09-18T12:41:08.965Z,101260.63
2022-09-18T12:43:41.210Z,101261.81
2022-09-18T12:46:22.664Z,101267.22
2022-09-18T12:49:17.154Z,101256.56
2022-09-18T12:51:55.221Z,101253.25
2022-09-18T12:54:45.705Z,101255.06
2022-09-18T12:57:21.052Z,101261.94
2022-09-18T13:00:00.544Z,101262.28
2022-09-18T13:02:51.769Z,101250.66
2022-09-18T13:05:30.306Z,101252.84
2022-09-18T13:08:25.976Z,101258.09
2022-09-18T13:11:18.529Z,101251.84
2022-09-18T13:13:58.874Z,101254.53
2022-09-18T13:16:35.258Z,101255.44
2022-09-18T13:19:07.808Z,101258.69
2022-09-18T13:21:42.268Z,101256.25
2022-09-18T13:24:16.612Z,101262.31
2022-09-18T13:26:49.741Z,101255.72
2022-09-18T13:29:40.920Z,101259.81
2022-09-18T13:32:14.421Z,101253.66
2022-09-18T13:34:53.281Z,101244.19
2022-09-18T13:37:26.807Z,101232.72
2022-09-18T13:40:10.469Z,101232.72
2022-09-18T13:42:43.466Z,101234.22
2022-09-18T13:45:21.068Z,101223.94
2022-09-18T13:48:05.367Z,101218.47
2022-09-18T13:50:47.833Z,101213.84
2022-09-18T13:53:34.014Z,101213.06
2022-09-18T13:56:07.448Z,101208.66
2022-09-18T13:59:00.370Z,101205.09
2022-09-18T14:01:35.747Z,101206.53
2022-09-18T14:04:26.806Z,101204.91
2022-09-18T14:06:59.070Z,101208.69
2022-09-18T14:09:48.791Z,101211.06
2022-09-18T14:12:22.687Z,101209.84
2022-09-18T14:15:02.461Z,101221.66
2022-09-18T14:17:36.966Z,101221.31
2022-09-18T14:20:20.121Z,101225.44
2022-09-18T14:22:52.605Z,101214.44
2022-09-18T14:25:45.147Z,101211.31
2022-09-18T14:28:21.353Z,101203.38
2022-09-18T14:31:19.042Z,101206.59
2022-09-18T14:33:51.348Z,101208.91
2022-09-18T14:36:23.649Z,101205.38
2022-09-18T14:38:56.570Z,101214.75
2022-09-18T14:41:34.521Z,101207.19
2022-09-18T14:44:14.923Z,101205.75
2022-09-18T14:46:55.581Z,101208.81
2022-09-18T14:49:33.941Z,101205.34
2022-09-18T14:52:19.920Z,101214.00
2022-09-18T14:54:53.411Z,101209.19
2022-09-18T14:57:30.419Z,101208.88
2022-09-18T15:00:03.899Z,101210.13
2022-09-18T15:02:36.477Z,101215.28
2022-09-18T15:05:10.550Z,101219.16
2022-09-18T15:08:03.514Z,101212.03
2022-09-18T15:10:38.550Z,101211.81
2022-09-18T15:13:12.378Z,101208.19
2022-09-18T15:15:45.852Z,101212.47
2022-09-18T15:18:25.060Z,101210.41
2022-09-18T15:20:59.126Z,101213.50
2022-09-18T15:23:38.443Z,101203.66
2022-09-18T15:26:13.414Z,101214.28
2022-09-18T15:28:48.869Z,101202.94
2022-09-18T15:31:22.157Z,101206.75
2022-09-18T15:33:57.316Z,101199.19
2022-09-18T15:36:32.052Z,101209.44
2022-09-18T15:39:05.577Z,101198.28
2022-09-18T15:41:41.950Z,101207.75
2022-09-18T15:44:33.118Z,101205.41
2022-09-18T15:47:24.134Z,101205.75
2022-09-18T15:49:57.032Z,101195.13
2022-09-18T15:52:40.025Z,101198.28
2022-09-18T15:55:23.381Z,101200.28
2022-09-18T15:57:57.630Z,101199.38
2022-09-18T16:00:31.359Z,101203.19
2022-09-18T16:03:03.695Z,101211.28
2022-09-18T16:05:37.927Z,101198.22
2022-09-18T16:08:18.568Z,101204.97
2022-09-18T16:10:52.898Z,101200.59
2022-09-18T16:13:25.322Z,101194.66
2022-09-18T16:16:13.032Z,101197.78
2022-09-18T16:18:48.622Z,101183.59
2022-09-18T16:21:21.608Z,101188.31
2022-09-18T16:23:59.055Z,101188.31
2022-09-18T16:26:32.878Z,101193.19
2022-09-18T16:29:18.431Z,101188.03
2022-09-18T16:31:50.709Z,101183.31
2022-09-18T16:34:27.501Z,101188.44
2022-09-18T16:36:59.991Z,101190.44
2022-09-18T16:39:32.337Z,101201.47
2022-09-18T16:42:13.555Z,101191.63
2022-09-18T16:44:46.104Z,101191.97
2022-09-18T16:47:18.662Z,101196.31
2022-09-18T16:49:51.067Z,101189.94
2022-09-18T16:52:23.593Z,101182.75
2022-09-18T16:54:56.070Z,101194.53
2022-09-18T16:57:29.552Z,101203.19
2022-09-18T17:00:05.123Z,101259.25
2022-09-18T17:02:37.512Z,101258.06
2022-09-18T17:05:09.857Z,101256.28
2022-09-18T17:07:43.639Z,101267.44
2022-09-18T17:10:15.960Z,101257.47
2022-09-18T17:12:51.950Z,101274.06
2022-09-18T17:15:24.380Z,101274.50
2022-09-18T17:17:56.752Z,101272.97
2022-09-18T17:20:29.042Z,101271.03
2022-09-18T17:23:01.400Z,101273.38
2022-09-18T17:25:33.752Z,101273.03
2022-09-18T17:28:06.332Z,101269.53
2022-09-18T17:30:42.333Z,101282.94
2022-09-18T17:33:18.564Z,101272.28
2022-09-18T17:35:52.659Z,101272.75
2022-09-18T17:38:25.082Z,101279.09
2022-09-18T17:40:58.463Z,101283.00
2022-09-18T17:43:30.942Z,101282.63
2022-09-18T17:46:04.577Z,101277.50
2022-09-18T17:48:37.032Z,101292.50
2022-09-18T17:51:14.705Z,101303.16
2022-09-18T17:53:48.323Z,101299.19
2022-09-18T17:56:20.749Z,101294.88
2022-09-18T17:58:54.038Z,101299.63
2022-09-18T18:01:27.325Z,101299.63
2022-09-18T18:04:00.067Z,101294.13
2022-09-18T18:06:32.764Z,101285.91
2022-09-18T18:09:06.791Z,101282.41
2022-09-18T18:11:39.297Z,101280.81
2022-09-18T18:14:13.713Z,101272.19
2022-09-18T18:16:49.763Z,101275.31
2022-09-18T18:19:24.742Z,101282.81
2022-09-18T18:21:57.116Z,101282.03
2022-09-18T18:24:31.012Z,101291.91
2022-09-18T18:27:05.158Z,101276.56
2022-09-18T18:29:39.681Z,101275.38
2022-09-18T18:32:12.742Z,101279.31
2022-09-18T18:34:45.495Z,101292.75
2022-09-18T18:37:19.692Z,101306.94
2022-09-18T18:39:52.760Z,101303.81
2022-09-18T18:42:28.240Z,101308.56
2022-09-18T18:45:02.391Z,101312.53
2022-09-18T18:47:34.802Z,101326.72
2022-09-18T18:50:07.351Z,101333.03
2022-09-18T18:52:39.661Z,101332.25
2022-09-18T18:55:12.168Z,101335.84
2022-09-18T18:57:44.510Z,101341.00
2022-09-18T19:00:17.224Z,101336.34
2022-09-18T19:02:50.202Z,101347.75
2022-09-18T19:05:30.285Z,101350.16
2022-09-18T19:08:03.368Z,101353.69
2022-09-18T19:10:36.448Z,101354.50
2022-09-18T19:13:08.802Z,101364.38
2022-09-18T19:15:41.292Z,101367.50
2022-09-18T19:18:13.785Z,101368.72
2022-09-18T19:20:49.638Z,101368.75
2022-09-18T19:23:22.039Z,101375.03
2022-09-18T19:25:58.382Z,101371.50
2022-09-18T19:28:31.097Z,101371.09
2022-09-18T19:31:04.261Z,101380.56
2022-09-18T19:33:36.696Z,101370.34
2022-09-18T19:36:10.079Z,101369.59
2022-09-18T19:38:42.708Z,101385.31
2022-09-18T19:41:21.782Z,101373.56
2022-09-18T19:43:57.393Z,101384.56
2022-09-18T19:46:31.502Z,101386.91
2022-09-18T19:49:03.901Z,101395.94
2022-09-18T19:51:37.717Z,101391.22
2022-09-18T19:54:09.996Z,101392.00
2022-09-18T19:56:47.148Z,101384.94
2022-09-18T19:59:19.399Z,101395.56
2022-09-18T20:01:51.735Z,101388.06
2022-09-18T20:04:26.228Z,101395.94
2022-09-18T20:06:58.487Z,101397.91
2022-09-18T20:09:30.791Z,101393.97
2022-09-18T20:12:03.155Z,101402.22
2022-09-18T20:14:35.409Z,101410.06
2022-09-18T20:17:26.935Z,101401.44
2022-09-18T20:19:59.547Z,101398.69
2022-09-18T20:22:31.822Z,101402.25
2022-09-18T20:25:04.207Z,101401.06
2022-09-18T20:27:37.971Z,101410.50
2022-09-18T20:30:12.515Z,101398.69
2022-09-18T20:32:44.819Z,101406.16
2022-09-18T20:35:18.182Z,101411.28
2022-09-18T20:37:51.403Z,101401.84
2022-09-18T20:40:23.757Z,101409.69
2022-09-18T20:42:56.100Z,101412.06
2022-09-18T20:45:28.426Z,101405.00
2022-09-18T20:48:04.039Z,101417.97
2022-09-18T20:50:38.921Z,101417.97
2022-09-18T20:53:11.214Z,101414.03
2022-09-18T20:55:49.343Z,101420.31
2022-09-18T20:58:21.925Z,101419.53
2022-09-18T21:00:54.364Z,101422.69
2022-09-18T21:03:28.163Z,101423.84
2022-09-18T21:06:21.775Z,101435.63
2022-09-18T21:08:55.577Z,101433.69
2022-09-18T21:11:29.150Z,101429.72
2022-09-18T21:14:03.169Z,101437.97
2022-09-18T21:16:42.618Z,101434.06
2022-09-18T21:19:19.136Z,101440.75
2022-09-18T21:21:51.395Z,101448.22
2022-09-18T21:24:23.662Z,101439.56
2022-09-18T21:26:56.959Z,101442.69
2022-09-18T21:29:30.080Z,101446.63
2022-09-18T21:32:02.371Z,101449.78
2022-09-18T21:34:35.084Z,101438.00
2022-09-18T21:37:08.407Z,101450.56
2022-09-18T21:39:42.594Z,101453.31
2022-09-18T21:42:16.749Z,101454.88
2022-09-18T21:44:49.106Z,101460.38
2022-09-18T21:47:21.553Z,101461.53
2022-09-18T21:49:54.137Z,101463.13
2022-09-18T21:52:26.413Z,101465.47
2022-09-18T21:54:58.722Z,101463.91
2022-09-18T21:57:30.956Z,101470.94
2022-09-18T22:00:04.521Z,101468.59
2022-09-18T22:02:37.468Z,101470.97
2022-09-18T22:05:11.994Z,101474.88
2022-09-18T22:07:44.407Z,101469.41
2022-09-18T22:10:16.743Z,101472.94
2022-09-18T22:12:49.293Z,101475.66
2022-09-18T22:15:21.644Z,101472.13
2022-09-18T22:17:54.108Z,101483.50
2022-09-18T22:20:26.427Z,101481.91
2022-09-18T22:22:58.892Z,101487.41
2022-09-18T22:25:31.856Z,101490.56
2022-09-18T22:28:06.041Z,101491.31
2022-09-18T22:30:38.473Z,101483.44
2022-09-18T22:33:11.026Z,101488.13
2022-09-18T22:35:43.337Z,101486.56
2022-09-18T22:38:15.742Z,101484.59
2022-09-18T22:40:48.046Z,101486.16
2022-09-18T22:43:22.265Z,101488.09
2022-09-18T22:46:00.613Z,101489.69
2022-09-18T22:48:33.727Z,101492.03
2022-09-18T22:51:10.511Z,101499.09
2022-09-18T22:53:47.256Z,101495.50
2022-09-18T22:56:20.782Z,101503.72
2022-09-18T22:58:53.985Z,101500.56
2022-09-18T23:01:32.469Z,101500.53
2022-09-18T23:04:05.259Z,101507.97
2022-09-18T23:06:38.285Z,101508.41
2022-09-18T23:09:11.246Z,101508.81
2022-09-18T23:11:44.816Z,101509.56
2022-09-18T23:14:20.340Z,101503.66
2022-09-18T23:16:52.783Z,101513.91
2022-09-18T23:19:32.337Z,101515.41
2022-09-18T23:22:04.844Z,101516.94
2022-09-18T23:24:37.094Z,101506.34
2022-09-18T23:27:09.523Z,101511.41
2022-09-18T23:29:41.929Z,101518.50
2022-09-18T23:32:14.220Z,101512.25
2022-09-18T23:34:46.522Z,101513.84
2022-09-18T23:37:18.989Z,101506.03
2022-09-18T23:39:51.286Z,101506.81
2022-09-18T23:42:24.702Z,101509.91
2022-09-18T23:44:57.288Z,101511.09
2022-09-18T23:47:29.711Z,101520.09
2022-09-18T23:50:01.997Z,101523.22
2022-09-18T23:52:34.416Z,101522.41
2022-09-18T23:55:08.573Z,101520.00
2022-09-18T23:57:40.829Z,101522.28
